Blowing Sand Mountains, Nevada Weather observations

Data are for observation ending at time listed.
 Day   Time    Ave.   Ave.  Ave.  Vector   Max.   Stn.    Total    Solar   Ave.  
  of    of     Air    Rel.  Wind   Wind    Wind   Baro.  Precip.   Rad.    Soil  
Year   Day     Temp.  Hum.  Speed  Dir.    Gust   Pres.                    Temp. 
2015   (PST)    F      %     mph   deg.    mph     mb.     in.     W/m2     F   
------------------------------------------------------------------------------
 211    8:30   77.5    12    1.9   324      3.6    887.4     0.00     627     74.5
 211    8:40   79.2    12    1.9   293      3.7    887.3     0.00     658     74.4
 211    8:50   81.4    10    2.8   298      6.1    887.2     0.00     688     74.3
 211    9:00   83.3     9    4.2   294      6.8    887.2     0.00     714     74.2
 211    9:10   83.9     9    3.8   278      6.2    887.2     0.00     742     74.2
 211    9:20   84.6     8    3.5   261      6.4    887.2     0.00     768     74.2
 211    9:30   85.5     8    2.8   231      6.5    887.3     0.00     793     74.1
 211    9:40   86.8     8    2.2   227      5.5    887.3     0.00     818     74.1
 211    9:50   87.1     8    2.0   317      4.7    887.4     0.00     840     74.0
 211   10:00   87.8     7    2.6   330      5.9    887.3     0.00     861     74.0
 211   10:10   88.1     7    3.4   329      7.5    887.2     0.00     878     74.0
 211   10:20   87.8     8    3.8   316      6.9    887.2     0.00     896     73.9
 211   10:30   87.9     8    3.9   301      8.2    887.1     0.00     912     73.9
 211   10:40   89.2     7    3.5   332      7.7    887.1     0.00     928     73.9
 211   10:50   89.6     7    3.5   323      6.9    887.0     0.00     939     73.9
 211   11:00   90.1     7    4.4   325      6.9    886.9     0.00     950     74.0
 211   11:10   90.9     7    4.1   323      8.0    886.9     0.00     958     74.0
 211   11:20   91.2     6    3.1   327      9.1    886.8     0.00     972     74.0
 211   11:30   91.9     7    4.0   325      8.7    886.7     0.00     978     74.0
 211   11:40   92.5     6    4.2    14      9.0    886.6     0.00     983     74.1
 211   11:50   92.7     6    4.7   328     11.0    886.5     0.00     986     74.1
 211   12:00   93.5     6    4.1   300      9.9    886.3     0.00     987     74.2
 211   12:10   93.8     6    5.1   326      9.2    886.2     0.00     987     74.2
 211   12:20   93.9     6    4.2   291      9.8    886.1     0.00     985     74.3
 211   12:30   95.6     6    5.1   280     11.9    885.8     0.00     985     74.4
 211   12:40   96.7     5    3.8    46     13.5    885.7     0.00     980     74.4
 211   12:50   96.1     5    4.7   275     10.2    885.6     0.00     976     74.5
 211   13:00   95.9     6    7.5   300     12.2    885.4     0.00     967     74.6
 211   13:10   95.9     6    6.2   288     11.3    885.3     0.00     957     74.7
 211   13:20   96.7     5    7.7    18     11.9    885.2     0.00     943     74.8
 211   13:30   96.7     5    5.2   335      9.8    885.0     0.00     938     74.9
 211   13:40   97.7     5    5.6   357     12.3    884.8     0.00     917     75.0
 211   13:50   97.3     5    4.5   331     11.9    884.6     0.00     883     75.1
 211   14:00   98.2     5    3.6   271     10.6    884.4     0.00     885     75.3
 211   14:10   98.6     5    8.0   346     16.7    884.2     0.00     806     75.4
 211   14:20   97.9     5    8.3     4     17.2    884.1     0.00     834     75.5
 211   14:30   98.5     5    7.0   351     14.8    884.0     0.00     884     75.7
 211   14:40   99.1     5    6.6    28     13.2    883.8     0.00     814     75.8
 211   14:50   99.0     5    7.2    15     15.8    883.7     0.00     740     75.9
 211   15:00   98.9     5    9.5    13     17.2    883.7     0.00     673     76.0
 211   15:10   98.4     5    5.7   330     11.3    883.6     0.00     640     76.2
 211   15:20   97.7     5    7.4   338     14.5    883.5     0.00     453     76.3
 211   15:30   97.7     5    4.9     8     11.0    883.4     0.00     408     76.5
 211   15:40   97.6     5    7.6   336     13.2    883.4     0.00     418     76.6
 211   15:50   98.2     5    8.1   319     10.9    883.3     0.00     569     76.7
 211   16:00   98.3     5    9.1   308     15.0    883.2     0.00     598     76.9
 211   16:10   97.6     5    6.1   308      9.6    883.2     0.00     448     77.0
 211   16:20   98.3     5    6.4   333     11.2    883.1     0.00     509     77.1
 211   16:30   98.2     5    7.5   297     12.8    883.0     0.00     523     77.3
 211   16:40   97.7     5    6.7   287     10.4    882.9     0.00     296     77.4
 211   16:50   97.3     5    6.2   323      9.5    882.8     0.00     297     77.5
 211   17:00   96.8     5    5.6   343      9.6    882.8     0.00     213     77.6
 211   17:10   97.6     5    7.8   300     13.9    882.7     0.00     376     77.7
 211   17:20   97.2     5    9.8   306     14.0    882.7     0.00     314     77.8
 211   17:30   97.1     6    8.1   307     11.4    882.7     0.00     217     78.0
 211   17:40   96.6     6    7.5   331     10.2    882.7     0.00     187     78.1
 211   17:50   96.4     6    9.4   345     15.3    882.7     0.00     138     78.2
 211   18:00   95.9     6    7.5   337     11.9    882.8     0.00     128     78.3
 211   18:10   95.7     6    8.3   344     12.5    882.7     0.00     114     78.4
 211   18:20   95.3     6    7.5   340     10.7    882.7     0.00      78     78.5
 211   18:30   95.0     6    8.2   346     12.3    882.8     0.00      52     78.6
 211   18:40   94.6     6    7.2   344     10.4    882.8     0.00      38     78.7
 211   18:50   94.0     6    6.0   348      8.9    882.8     0.00      27     78.7
 211   19:00   93.2     6    4.7   350      8.0    882.8     0.00      13     78.8
 211   19:10   91.9     7    4.2   348      5.6    882.8     0.00       6     78.9
 211   19:20   90.9     7    4.2   356      5.3    882.9     0.00       2     79.0
 211   19:30   90.2     7    3.4     1      4.5    882.9     0.00       0     79.1
 211   19:40   88.5     8    2.0    26      3.2    883.0     0.00       0     79.1
 211   19:50   87.5     8    1.1    41      2.7    883.1     0.00       0     79.2
 211   20:00   84.7    10    4.9   163      7.9    883.2     0.00       0     79.3
 211   20:10   85.1     9    7.7   141     10.8    883.4     0.00       0     79.3
 211   20:20   87.2    10    6.0   130      9.9    883.6     0.00       0     79.3
 211   20:30   88.2    11    7.7   128     12.1    883.7     0.00       0     79.4
 211   20:40   88.0    12    8.6   125     11.9    883.8     0.00       0     79.4
 211   20:50   86.7    13    7.8   122     10.8    883.9     0.00       0     79.4
 211   21:00   86.2    13    7.4   130     12.7    884.1     0.00       0     79.5
 211   21:10   85.6    14    5.7   125      9.8    884.1     0.00       0     79.5
 211   21:20   84.1    14    4.3   110      6.4    884.1     0.00       0     79.5
 211   21:30   83.0    15    5.3   120      7.7    884.1     0.00       0     79.5
 211   21:40   83.0    15    7.3   125     10.2    884.2     0.00       0     79.5
 211   21:50   84.2    15    9.3   123     13.3    884.3     0.00       0     79.5
 211   22:00   83.5    16    7.4   143     10.3    884.4     0.00       0     79.5
 211   22:10   81.1    17    5.6   141      8.9    884.5     0.00       0     79.5
 211   22:20   79.5    18    3.7   138      6.4    884.5     0.00       0     79.5
 211   22:30   77.1    20    3.0   149      4.5    884.5     0.00       0     79.5
 211   22:40   74.9    22    2.9   142      4.6    884.5     0.00       0     79.5
 211   22:50   73.7    22    3.7   142      5.1    884.5     0.00       0     79.5
 211   23:00   73.4    23    2.7   104      4.5    884.6     0.00       0     79.5
 211   23:10   73.5    23    2.8   164      4.5    884.6     0.00       0     79.5
 211   23:20   73.1    24    1.6    90      2.5    884.6     0.00       0     79.5
 211   23:30   73.0    24    3.8   143      5.8    884.6     0.00       0     79.4
 211   23:40   73.8    23    3.8   131      5.1    884.6     0.00       0     79.4
 211   23:50   74.4    23    4.8   156      6.6    884.6     0.00       0     79.4
 212    0:00   74.6    23    2.9   102      4.7    884.5     0.00       0     79.4
 212    0:10   74.2    23    2.8    50      4.2    884.5     0.00       0     79.3
 212    0:20   73.1    24    2.9    47      4.6    884.6     0.00       0     79.3
 212    0:30   73.3    24    3.5    54      5.7    884.7     0.00       0     79.3
 212    0:40   72.3    25    4.8    63      6.1    884.6     0.00       0     79.2
 212    0:50   71.8    25    3.8    61      5.0    884.7     0.00       0     79.2
 212    1:00   72.3    25    4.0    80      5.8    884.6     0.00       0     79.2
 212    1:10   73.1    24    3.5    95      6.4    884.5     0.00       0     79.1
 212    1:20   71.7    26    2.2   254      5.0    884.5     0.00       0     79.1
 212    1:30   72.1    25    0.5   187      3.9    884.5     0.00       0     79.0
 212    1:40   69.9    27    3.4   146      4.6    884.6     0.00       0     79.0
 212    1:50   69.9    27    5.0   106      6.6    884.7     0.00       0     78.9
 212    2:00   68.3    29    4.3   127      6.3    884.7     0.00       0     78.9
 212    2:10   67.1    30    1.0   125      1.8    884.6     0.00       0     78.9
 212    2:20   67.1    31    0.8   336      3.1    884.6     0.00       0     78.8
 212    2:30   66.4    31    3.5   248      5.3    884.6     0.00       0     78.8
 212    2:40   65.8    32    3.4   202      4.6    884.6     0.00       0     78.7
 212    2:50   65.5    32    3.0   194      4.4    884.6     0.00       0     78.6
 212    3:00   65.7    32    3.2    63      4.4    884.6     0.00       0     78.6
 212    3:10   66.0    32    1.7    83      3.1    884.6     0.00       0     78.5
 212    3:20   66.2    32    2.6    90      3.9    884.7     0.00       0     78.5
 212    3:30   67.2    30    2.6   106      3.4    884.6     0.00       0     78.4
 212    3:40   67.4    30    3.1    57      4.6    884.6     0.00       0     78.3
 212    3:50   67.8    30    0.9   147      2.1    884.7     0.00       0     78.3
 212    4:00   67.9    30    2.8   218      3.7    884.8     0.00       0     78.2
 212    4:10   68.0    30    2.1   167      3.6    884.9     0.00       0     78.2
 212    4:20   67.8    30    2.1    95      3.9    885.0     0.00       0     78.1
 212    4:30   67.4    32    0.0     0      0.0    885.0     0.00       0     78.0
 212    4:40   67.7    31    0.4   265      1.7    885.1     0.00       0     78.0
 212    4:50   67.5    32    3.1   181      4.7    885.2     0.00       1     77.9
 212    5:00   66.8    32    2.8    40      4.0    885.2     0.00       2     77.8
 212    5:10   66.6    33    2.0   108      3.7    885.2     0.00       8     77.8
 212    5:20   66.3    34    1.6   193      4.7    885.1     0.00      18     77.7
 212    5:30   66.3    34    3.3   174      6.0    885.3     0.00      27     77.7
 212    5:40   67.6    33    3.4   332      5.8    885.3     0.00      38     77.6
 212    5:50   68.2    32    4.1    80      8.8    885.5     0.00      51     77.5
 212    6:00   69.7    29    4.2   130      7.7    885.6     0.00      67     77.5
 212    6:10   71.1    28    3.8    87      4.9    885.6     0.00      76     77.4
 212    6:20   72.6    27    3.5    51      5.7    885.5     0.00      79     77.4
 212    6:30   73.2    27    3.9    25      6.3    885.6     0.00      96     77.3
 212    6:40   74.1    26    2.3   329      5.2    885.6     0.00     105     77.3
 212    6:50   74.8    27    3.2   180      6.2    885.8     0.00     114     77.2
 212    7:00   74.8    26    3.7   211      6.1    885.8     0.00     132     77.1
 212    7:10   74.5    26    2.4   317      4.5    886.0     0.00     138     77.1
 212    7:20   74.4    26    3.0   326      6.1    886.0     0.00     150     77.0
 212    7:30   74.3    26    3.7   320      5.8    886.1     0.00     175     76.9
 212    7:40   74.9    26    4.4   282      5.8    886.2     0.00     205     76.9
 212    7:50   75.3    26    3.8   312      5.8    886.1     0.00     221     76.8
 212    8:00   76.6    24    2.8   335      4.1    886.1     0.00     240     76.8
 212    8:10   77.7    23    1.8   336      3.0    886.0     0.00     256     76.7
 212    8:20   79.4    21    0.6    20      2.0    885.9     0.00     288     76.7

Return to Blowing Sand Mountains graphs page.


Western Regional Climate Center,wrcc@dri.edu